CheckWX is a tool to help pilots better visualize weather data.  It is not intended as a substitute for an official pre-flight weather briefing.

17:01:02 UTC

KSFF METAR
Felts Field Airport
Spokane, Washington, USA
Current

1 hour ago

KSFF 221553Z 22008KT 10SM FEW100 FEW120 21/08 A3005 RMK AO2 PRESRR SLP161 T02060083
Observed
Jul-22 @ 15:53 UTC
Wind
  • 220° at 8 KTS
Visibility
10 SM
Flight Rules
VFR
Cloud Levels
  • Few at 10,000' AGL
  • Few at 12,000' AGL
Temperature
21°C / 70°F
Dewpoint
C / 46°F
Humidity
43%
Altimeter
30.05" Hg
Pressure
1017.62 hPa
Previous

1 hour ago

KSFF 221553Z COR 08008KT 10SM FEW100 FEW120 21/08 A3005 RMK AO2 PRESRR SLP161 T02060083
Observed
Jul-22 @ 15:53 UTC
Wind
  • 080° at 8 KTS
Visibility
10 SM
Flight Rules
VFR
Cloud Levels
  • Few at 10,000' AGL
  • Few at 12,000' AGL
Temperature
21°C / 70°F
Dewpoint
C / 46°F
Humidity
43%
Altimeter
30.05" Hg
Pressure
1017.62 hPa
Previous

2 hours ago

KSFF 221453Z 25006KT 10SM CLR 19/09 A3000 RMK AO2 SLP142 T01890094 53003
Observed
Jul-22 @ 14:53 UTC
Wind
  • 250° at 6 KTS
Visibility
10 SM
Flight Rules
VFR
Cloud Levels
  • Clear skies
Temperature
19°C / 66°F
Dewpoint
C / 48°F
Humidity
52%
Altimeter
30" Hg
Pressure
1015.92 hPa